Date,TemperatureHighF,TemperatureAvgF,TemperatureLowF,DewpointHighF,DewpointAvgF,DewpointLowF,HumidityHigh,HumidityAvg,HumidityLow,PressureMaxIn,PressureMinIn,WindSpeedMaxMPH,WindSpeedAvgMPH,GustSpeedMaxMPH,PrecipitationSumIn
2013-1-1,30.6,15.7,-0.2,27.8,10.0,-2.9,97,78,64,29.03,28.75,5,2,26,0.00
2013-1-2,14.4,5.0,-4.7,11.2,0.6,-8.6,91,82,70,29.32,28.96,4,1,16,0.00
2013-1-3,9.4,-6.0,-20.5,0.0,-10.4,-24.0,89,81,60,29.35,29.06,1,0,3,0.00
2013-1-4,32.0,19.3,-0.2,27.3,15.3,-2.9,93,85,70,29.05,28.84,5,2,23,0.00
2013-1-5,32.4,21.2,5.2,26.5,15.3,2.9,92,78,64,29.33,28.87,6,2,22,0.00
2013-1-6,28.2,19.7,5.6,25.7,17.9,3.3,97,92,86,29.29,28.99,1,0,4,0.00
2013-1-7,26.9,15.8,-0.4,26.2,11.9,-2.9,97,85,70,29.45,29.02,4,1,14,0.00
2013-1-8,37.9,16.5,-0.4,26.4,12.8,-3.1,95,86,59,29.49,29.28,5,1,19,0.00
2013-1-9,41.5,21.3,3.5,32.8,17.3,1.2,94,85,65,29.50,28.99,6,1,25,0.02
2013-1-10,39.5,33.2,22.0,31.9,26.0,19.8,93,75,66,29.64,29.08,7,3,32,0.00
2013-1-11,34.7,26.4,14.8,32.2,23.2,13.2,97,88,65,29.64,29.20,4,1,12,0.02
2013-1-12,42.6,34.6,32.0,38.8,33.5,31.3,98,96,86,29.24,29.14,2,0,6,0.03
2013-1-13,44.1,36.1,32.0,39.3,34.6,31.8,99,95,83,29.20,28.97,2,0,5,0.01
2013-1-14,46.4,36.9,31.2,41.8,31.7,25.9,99,83,55,29.35,28.89,4,1,13,0.00
2013-1-15,32.5,29.0,23.5,26.8,21.8,19.2,86,75,60,29.42,29.33,2,1,9,0.00
2013-1-16,30.0,25.8,19.1,27.8,23.5,17.9,96,91,85,29.33,28.85,1,0,2,0.00
2013-1-17,32.2,18.6,6.7,28.4,11.8,-3.2,97,75,52,29.26,28.86,4,1,15,0.00
2013-1-18,16.1,3.5,-9.7,1.9,-4.7,-13.0,87,70,44,29.46,29.23,4,1,14,0.00
2013-1-19,37.5,23.7,6.4,28.2,20.3,2.4,94,87,59,29.34,28.83,3,1,15,0.00
2013-1-20,45.1,32.5,15.3,33.2,21.8,2.8,93,65,49,29.01,28.50,10,5,35,0.09
2013-1-21,19.8,11.7,0.2,10.9,4.0,-2.8,88,72,44,29.14,28.91,4,1,14,0.00
2013-1-22,16.2,7.7,-2.2,8.0,0.9,-10.5,91,74,52,29.16,28.89,5,1,17,0.00
2013-1-23,-0.1,-6.6,-16.2,-6.1,-13.7,-20.0,83,71,49,29.30,29.15,3,2,12,0.00
2013-1-24,8.9,-4.5,-20.4,-6.5,-13.6,-24.1,84,66,41,29.44,29.25,5,2,19,0.00
2013-1-25,12.9,4.3,-3.9,2.2,-4.8,-9.8,81,66,48,29.48,29.20,3,1,11,0.00
2013-1-26,13.0,6.3,-4.6,6.3,-0.9,-7.4,89,73,47,29.39,29.19,4,1,18,0.00
2013-1-27,16.6,7.6,-2.1,6.3,-1.4,-5.5,85,68,38,29.60,29.39,5,2,15,0.00
2013-1-28,17.6,8.4,-4.3,15.7,4.8,-7.2,92,85,57,29.59,29.14,1,0,4,0.00
2013-1-29,30.2,23.7,15.2,28.9,21.4,13.4,96,91,82,29.29,29.12,2,0,6,0.00
2013-1-30,48.4,37.6,29.1,48.2,36.7,28.1,100,96,88,29.12,28.38,3,1,13,0.52
2013-1-31,41.2,32.8,21.9,41.2,26.0,8.1,100,78,51,29.62,28.00,10,4,42,0.57
2013-2-1,21.7,15.9,9.7,10.9,7.5,3.1,86,69,54,30.22,29.63,5,2,29,0.00
2013-2-2,20.4,12.6,2.2,13.8,6.8,-0.3,92,78,56,30.31,30.16,5,1,18,0.00
2013-2-3,26.9,12.7,-0.7,15.1,7.3,-3.1,91,80,54,30.17,29.87,2,0,7,0.00
2013-2-4,23.6,15.8,5.5,14.2,5.0,-5.3,92,65,33,30.04,29.84,6,2,20,0.00
2013-2-5,21.5,10.2,-4.5,8.0,-1.2,-8.3,85,61,39,30.17,30.04,2,1,9,0.00
2013-2-6,28.2,16.8,3.9,23.8,9.4,-6.0,90,73,47,30.49,30.01,3,1,13,0.00
2013-2-7,16.0,8.4,-3.0,3.4,-4.4,-8.5,78,57,36,30.71,30.49,3,1,11,0.00
2013-2-8,22.0,17.3,12.4,19.4,14.2,3.7,94,87,67,30.60,30.06,0,0,2,0.00
2013-2-9,17.1,11.2,1.7,14.5,4.5,-2.4,90,75,60,30.47,30.05,6,2,21,0.00
2013-2-10,29.5,8.6,-10.9,10.8,0.2,-14.1,90,72,33,30.63,30.47,2,0,7,0.02
2013-2-11,31.8,20.9,2.1,31.3,18.4,-0.4,98,90,62,30.46,29.74,3,0,6,0.00
2013-2-12,34.4,32.1,30.9,31.5,30.9,30.1,98,95,88,29.78,29.72,3,1,10,0.00
2013-2-13,36.9,30.3,26.8,27.0,24.8,20.4,93,81,52,29.96,29.87,2,0,8,0.04
2013-2-14,36.8,28.1,22.6,26.1,22.2,19.6,94,80,52,30.08,29.86,2,0,8,0.00
2013-2-15,42.8,31.7,21.1,31.2,24.6,18.9,94,76,51,30.07,29.97,6,1,20,0.01
2013-2-16,30.4,24.6,16.9,25.5,14.5,4.3,93,66,46,30.11,30.01,4,1,13,0.00
2013-2-17,16.8,11.5,9.5,5.1,3.3,1.2,79,69,57,30.00,29.78,7,3,35,0.00
2013-2-18,23.2,12.1,4.9,1.8,-0.6,-4.0,78,59,30,30.29,29.96,5,2,20,0.00
2013-2-19,38.5,23.1,2.3,30.6,13.4,-1.8,97,69,34,30.29,29.73,5,1,14,0.00
2013-2-20,31.5,25.9,21.1,30.7,21.4,17.0,97,83,64,29.84,29.71,5,1,16,0.00
2013-2-21,21.3,15.8,8.5,17.8,9.8,3.5,88,77,58,30.47,29.86,4,1,15,0.00
2013-2-22,33.4,24.1,9.8,23.3,19.2,7.7,93,82,63,30.58,30.39,2,0,5,0.03
2013-2-23,32.5,30.1,23.6,29.7,26.3,21.3,98,86,73,30.39,30.05,4,1,17,0.00
2013-2-24,36.4,31.4,28.9,34.6,30.0,26.8,98,94,85,30.05,29.89,3,0,13,0.11
2013-2-25,35.7,31.8,28.8,31.1,29.2,27.8,97,90,83,30.36,30.06,3,1,10,0.08
2013-2-26,41.8,33.8,28.0,33.9,29.3,27.4,98,85,61,30.45,30.27,5,1,11,0.13
2013-2-27,34.5,32.5,30.4,33.2,30.4,27.0,98,92,76,30.26,29.77,2,0,8,0.25
2013-2-28,43.1,34.3,30.5,38.0,32.9,30.0,98,95,80,29.77,29.67,2,0,7,0.33
2013-3-1,34.8,31.0,28.7,30.4,28.2,26.7,99,89,75,29.87,29.70,4,1,15,0.00
2013-3-2,33.6,28.3,22.6,27.2,24.5,19.0,94,86,72,29.89,29.83,4,2,14,0.00
2013-3-3,32.0,25.7,21.1,24.3,21.6,18.6,92,85,73,29.87,29.78,3,1,13,0.00
2013-3-4,27.6,23.9,21.8,21.4,19.8,19.0,92,84,73,30.00,29.81,5,2,18,0.00
2013-3-5,36.3,29.4,24.6,28.8,24.5,20.1,96,82,71,30.24,30.00,3,1,14,0.01
2013-3-6,40.6,33.4,25.8,31.0,26.5,23.7,96,77,56,30.33,30.23,2,1,10,0.00
2013-3-7,35.8,32.2,29.6,24.8,23.3,21.1,78,69,63,30.33,30.27,3,1,11,0.00
2013-3-8,43.1,32.1,23.6,27.5,24.7,21.8,93,75,53,30.45,30.27,4,1,14,0.00
2013-3-9,50.3,30.9,15.0,28.7,21.8,13.6,95,74,31,30.50,30.41,3,1,11,0.00
2013-3-10,54.0,35.7,18.3,30.8,24.6,17.1,95,69,34,30.49,30.27,5,1,11,0.00
2013-3-11,48.5,39.1,30.7,34.6,31.8,28.9,93,77,53,30.32,30.10,3,1,11,0.00
2013-3-12,44.7,39.9,35.3,43.4,38.3,33.7,99,94,80,30.11,29.82,4,1,14,1.00
2013-3-13,40.4,33.8,26.6,34.4,30.5,25.9,99,89,59,29.94,29.86,3,0,14,0.01
2013-3-14,28.5,23.1,15.4,27.1,17.2,6.5,98,78,58,30.02,29.85,5,2,26,0.00
2013-3-15,35.0,23.0,10.8,26.6,13.6,4.9,94,69,34,30.04,29.71,4,2,14,0.01
2013-3-16,29.0,22.5,11.6,20.6,13.9,9.0,89,70,48,30.04,29.84,3,1,14,0.01
2013-3-17,25.2,13.6,2.2,13.9,5.3,-0.5,92,72,41,30.48,30.04,5,1,17,0.00
2013-3-18,33.9,17.9,-2.2,17.0,4.9,-4.9,90,62,28,30.60,30.29,2,1,8,0.05
2013-3-19,30.6,27.4,24.8,28.1,25.4,17.5,96,92,62,30.28,29.85,3,0,11,0.00
2013-3-20,33.3,26.1,16.3,27.5,22.0,14.4,96,85,65,29.85,29.77,0,0,0,0.04
2013-3-21,35.5,22.8,8.2,21.0,13.8,6.1,93,71,42,29.87,29.75,3,0,12,0.10
2013-3-22,36.7,22.9,7.2,23.7,16.2,5.1,94,77,50,29.87,29.77,3,1,12,0.08
2013-3-23,34.8,30.0,24.4,26.3,23.1,19.8,93,76,58,29.92,29.77,6,3,26,0.00
2013-3-24,39.1,31.6,21.1,26.0,24.1,18.9,91,74,55,29.99,29.91,4,2,17,0.05
2013-3-25,46.1,30.5,14.1,29.7,22.2,12.5,94,74,43,29.95,29.68,2,1,9,0.00
2013-3-26,44.3,35.3,25.3,27.5,25.0,22.5,90,68,45,29.92,29.74,4,1,19,0.00
2013-3-27,45.8,34.7,22.0,32.2,27.2,20.5,95,76,51,30.05,29.90,4,1,18,0.00
2013-3-28,48.0,37.2,31.2,35.5,32.0,29.2,96,83,57,30.17,30.05,3,1,14,0.00
2013-3-29,47.2,38.0,31.4,36.7,32.5,29.6,98,82,59,30.19,30.13,3,1,15,0.00
2013-3-30,48.6,36.2,24.3,33.6,23.7,15.3,97,67,26,30.24,30.16,5,1,18,0.01
2013-3-31,54.1,38.4,19.3,36.4,25.0,18.1,95,64,32,30.24,29.86,5,2,19,0.00
2013-4-1,44.8,36.6,28.6,41.3,30.4,14.0,98,80,45,29.89,29.62,5,2,26,0.12
2013-4-2,32.3,27.5,23.4,17.0,13.6,10.5,72,56,41,30.01,29.89,7,4,27,0.00
2013-4-3,39.1,31.0,24.0,22.0,13.4,8.5,70,49,29,30.32,30.01,7,4,26,0.00
2013-4-4,50.1,36.3,21.7,25.4,17.0,9.0,83,48,25,30.40,30.04,6,2,17,0.00
2013-4-5,46.5,36.3,28.2,32.6,24.8,16.9,86,65,36,30.07,29.91,6,2,20,0.01
2013-4-6,38.4,28.8,21.6,17.7,11.0,6.1,74,49,27,30.43,30.08,6,3,23,0.00
2013-4-7,54.5,38.9,25.5,33.7,24.2,14.3,84,58,33,30.41,29.95,6,2,24,0.00
2013-4-8,54.8,44.4,36.7,37.4,33.5,31.2,86,67,42,30.26,29.99,3,2,13,0.00
2013-4-9,49.7,41.4,36.1,43.5,38.4,32.3,99,90,72,30.15,29.96,3,1,12,0.17
2013-4-10,50.5,41.5,37.0,44.3,39.4,36.5,99,93,76,30.13,30.03,2,0,7,0.18
2013-4-11,40.8,35.8,29.8,37.6,26.3,19.1,99,71,47,30.33,30.04,3,1,12,0.00
2013-4-12,32.7,30.9,29.1,30.9,27.1,19.1,98,87,60,30.33,29.99,4,1,13,0.00
2013-4-13,49.2,37.3,31.1,38.7,33.9,30.6,99,89,60,30.03,29.90,4,1,17,0.68
2013-4-14,44.9,36.1,27.5,40.5,33.1,26.8,99,90,66,30.35,30.01,3,1,13,0.11
2013-4-15,59.5,40.9,22.8,37.9,31.0,21.8,98,72,39,30.50,30.33,4,1,16,0.00
2013-4-16,59.9,47.7,33.4,53.6,42.9,31.9,98,84,62,30.38,30.05,5,2,16,0.19
2013-4-17,54.7,44.1,29.3,43.2,33.9,27.5,97,70,40,30.48,30.18,5,2,17,0.00
2013-4-18,49.5,34.8,27.7,36.2,29.4,26.5,96,83,47,30.52,30.33,4,1,13,0.00
2013-4-19,74.8,62.7,48.3,61.1,52.4,37.5,96,70,49,30.06,29.56,6,3,22,0.59
2013-4-20,49.7,42.8,33.2,47.0,31.4,18.8,97,67,40,30.37,29.71,8,3,29,0.04
2013-4-21,45.6,34.7,24.4,23.2,18.9,14.1,85,55,29,30.83,30.38,5,2,19,0.00
2013-4-22,55.2,38.5,19.2,25.1,20.0,15.5,95,55,24,30.89,30.66,6,2,17,0.00
2013-4-23,47.7,38.5,24.3,37.2,30.8,22.6,94,75,56,30.71,30.29,7,1,16,0.00
2013-4-24,75.8,55.5,39.6,52.1,41.3,31.6,96,65,20,30.29,29.74,5,1,16,0.01
2013-4-25,57.1,46.2,29.5,53.0,33.4,25.6,96,63,33,30.43,29.73,7,2,25,0.03
2013-4-26,55.3,39.5,25.3,43.0,31.1,24.1,96,76,40,30.58,30.43,4,1,13,0.00
2013-4-27,62.8,43.6,26.0,38.7,29.5,19.9,98,66,20,30.59,30.40,3,1,13,0.01
2013-4-28,72.8,50.1,26.5,44.1,33.4,25.5,96,61,24,30.46,30.23,4,1,12,0.00
2013-4-29,66.5,53.5,37.8,47.6,41.2,36.1,94,67,36,30.33,30.22,4,1,13,0.00
2013-4-30,72.2,57.6,46.8,52.4,46.9,44.3,92,70,42,30.40,30.30,4,1,15,0.00
2013-5-1,79.5,58.2,36.3,48.4,41.2,35.5,98,62,22,30.56,30.40,3,1,12,0.00
2013-5-2,82.1,60.1,37.3,49.9,42.2,36.3,97,60,26,30.55,30.39,3,1,12,0.00
2013-5-3,71.8,56.5,40.2,45.3,37.9,28.3,89,53,30,30.62,30.41,5,2,12,0.00
2013-5-4,77.9,57.3,35.8,48.2,40.3,32.5,98,62,20,30.48,30.25,4,1,11,0.00
2013-5-5,79.4,58.5,35.9,45.1,38.7,32.7,96,56,19,30.39,30.19,3,1,10,0.00
2013-5-6,79.9,58.6,35.6,45.9,37.2,22.0,95,55,12,30.33,30.12,4,1,13,0.00
2013-5-7,83.8,51.5,35.8,46.9,39.4,34.5,96,72,18,30.25,30.10,1,0,6,0.00
2013-5-8,76.6,58.8,40.3,60.9,51.3,39.3,99,80,39,30.28,30.15,6,1,15,0.19
2013-5-9,69.7,60.5,54.1,61.5,57.7,53.5,100,92,63,30.14,29.95,4,0,11,0.18
2013-5-10,73.7,60.8,51.6,62.5,56.5,51.3,100,88,55,30.07,29.91,2,0,7,0.09
2013-5-11,69.0,60.1,52.5,62.2,57.0,48.7,100,90,73,29.92,29.70,4,1,14,0.12
2013-5-12,61.1,52.0,42.0,49.7,41.7,27.3,98,70,38,29.87,29.70,5,2,19,0.00
2013-5-13,48.4,42.7,34.7,36.5,30.6,25.4,96,63,47,30.17,29.85,6,2,23,0.00
2013-5-14,57.3,43.5,31.8,38.9,31.8,26.1,99,69,30,30.23,30.09,4,1,16,0.01
2013-5-15,62.8,36.2,25.4,38.4,29.7,24.4,98,82,34,30.17,29.97,4,0,11,0.00
2013-5-16,75.6,55.5,42.4,53.1,43.3,37.2,99,72,25,29.76,29.69,7,2,31,0.01
2013-5-17,65.8,52.9,39.9,44.7,41.3,38.4,95,67,39,30.34,29.99,4,2,15,0.00
2013-5-18,73.2,53.9,32.2,46.7,38.4,27.2,99,65,18,30.43,30.30,3,1,11,0.00
2013-5-19,68.4,54.0,38.9,56.2,48.5,38.1,99,84,52,30.42,30.23,4,0,12,0.36
2013-5-20,66.0,57.9,53.0,63.1,57.1,52.7,100,97,85,30.22,30.08,1,0,7,0.02
2013-5-21,73.9,62.8,53.4,67.0,59.8,53.4,100,91,68,30.10,29.93,4,1,18,1.07
2013-5-22,80.1,63.5,52.1,71.0,61.2,51.6,100,93,69,30.00,29.85,4,1,16,0.26
2013-5-23,77.5,66.6,59.6,69.4,63.0,59.3,100,89,64,29.88,29.78,4,1,16,0.91
2013-5-24,60.9,49.7,43.1,60.6,48.4,42.3,100,95,86,30.11,29.77,4,1,18,0.55
2013-5-25,43.6,41.1,36.7,42.6,40.1,35.9,98,96,92,30.10,30.00,2,1,15,1.35
2013-5-26,48.6,42.2,35.7,45.3,40.4,35.4,99,94,83,30.21,29.95,4,1,18,0.10
2013-5-27,66.1,49.1,33.4,48.4,39.1,33.1,100,74,36,30.31,30.19,4,1,18,0.00
2013-5-28,73.6,53.7,31.8,53.1,42.3,31.3,99,72,34,30.38,30.19,1,0,7,0.00
2013-5-29,62.6,56.0,49.9,60.5,54.9,48.2,99,96,90,30.23,30.05,1,0,6,0.60
2013-5-30,84.9,66.9,51.7,69.4,61.1,51.7,100,85,50,30.18,30.08,3,1,17,0.01
2013-5-31,89.8,71.7,54.9,70.9,63.2,54.9,100,79,45,30.18,29.96,4,1,13,0.00
2013-6-1,90.6,73.4,56.6,71.2,64.4,56.3,100,78,42,30.03,29.87,4,1,15,0.00
2013-6-2,86.4,70.0,60.8,74.0,67.1,60.5,100,92,56,29.94,29.73,4,1,26,0.77
2013-6-3,70.9,61.4,46.0,63.3,55.1,45.2,100,82,54,29.95,29.85,4,1,14,0.01
2013-6-4,64.2,52.2,40.7,49.1,44.8,40.2,99,78,50,30.22,29.96,4,2,17,0.00
2013-6-5,70.0,55.4,38.3,53.1,44.3,36.0,99,71,29,30.33,30.21,3,1,11,0.00
2013-6-6,68.7,55.0,46.7,53.2,49.8,45.4,98,84,53,30.31,30.20,3,0,8,0.22
2013-6-7,53.3,51.6,49.4,52.5,51.0,48.6,99,98,94,30.20,30.01,2,0,10,0.92
2013-6-8,63.4,56.6,50.9,60.1,54.7,50.6,100,94,81,30.13,29.89,3,0,15,0.32
2013-6-9,74.6,61.6,49.7,60.6,55.9,49.2,100,84,52,30.30,30.13,4,1,14,0.02
2013-6-10,73.4,58.6,45.9,63.0,54.2,45.6,100,87,53,30.33,30.10,2,0,8,0.23
2013-6-11,58.6,55.9,54.3,57.2,55.2,53.7,99,98,93,30.10,29.70,2,0,7,1.78
2013-6-12,69.5,57.3,50.2,58.5,54.2,49.7,100,91,62,29.96,29.71,2,0,12,0.18
2013-6-13,67.7,57.2,47.9,61.1,53.4,47.6,100,88,65,29.94,29.79,1,0,7,0.00
2013-6-14,75.6,59.7,49.1,58.7,52.7,48.7,99,81,48,29.94,29.81,4,1,13,0.00
2013-6-15,74.6,58.9,41.8,54.1,47.2,41.3,100,71,38,30.06,29.94,3,1,14,0.00
2013-6-16,72.4,56.7,43.7,62.6,54.0,43.2,99,92,56,30.03,29.80,3,0,14,0.15
2013-6-17,73.3,61.0,52.0,65.8,58.6,52.0,100,92,62,30.04,29.88,4,0,16,0.22
2013-6-18,70.3,56.3,44.3,57.2,51.4,43.5,99,86,48,30.10,30.01,2,0,7,0.02
2013-6-19,69.6,54.5,38.9,51.5,44.9,38.4,99,75,42,30.31,30.10,3,1,12,0.01
2013-6-20,76.2,57.3,37.8,57.9,47.1,37.3,99,74,34,30.40,30.26,3,1,13,0.00
2013-6-21,82.0,62.2,43.4,62.7,52.9,42.9,99,76,37,30.37,30.28,3,0,10,0.00
2013-6-22,83.0,64.3,53.1,70.4,60.7,52.4,99,89,58,30.33,30.20,2,0,6,0.32
2013-6-23,84.8,71.0,61.6,74.6,67.8,61.3,99,91,65,30.21,30.03,3,0,15,0.66
2013-6-24,87.6,72.1,63.7,75.9,68.6,63.1,99,90,61,30.07,29.95,3,0,13,0.98
2013-6-25,87.5,70.5,62.4,76.0,66.8,61.8,98,90,58,30.01,29.81,6,0,22,0.62
2013-6-26,77.4,67.3,64.2,72.2,66.0,63.5,98,96,84,29.91,29.83,1,0,6,0.69
2013-6-27,84.1,71.7,61.8,74.2,67.7,61.2,98,88,61,29.90,29.79,2,0,7,0.00
2013-6-28,77.4,66.3,61.6,71.1,64.5,60.5,98,94,79,29.81,29.50,3,1,12,1.10
2013-6-29,80.9,68.7,61.3,70.5,64.5,60.7,98,88,55,29.77,29.58,4,1,15,0.22
2013-6-30,83.4,71.5,62.8,72.3,66.8,62.2,98,86,55,30.01,29.76,2,0,8,0.25
2013-7-1,72.0,67.5,60.4,68.9,66.1,59.5,98,95,87,30.19,30.00,1,0,7,0.27
2013-7-2,81.7,68.5,60.2,75.3,66.2,59.4,98,93,79,30.23,30.15,2,0,6,0.35
2013-7-3,85.7,72.6,64.2,74.9,69.5,63.3,98,91,64,30.25,30.18,4,0,13,0.26
2013-7-4,87.9,73.8,67.3,77.0,70.4,66.4,97,90,62,30.27,30.15,4,0,15,1.00
2013-7-5,88.1,73.8,64.6,77.9,70.3,63.7,98,90,64,30.24,30.11,3,0,12,0.00
2013-7-6,84.9,73.0,62.2,72.0,67.5,60.9,97,85,55,30.16,30.06,4,1,18,0.04
2013-7-7,86.0,70.0,59.3,74.3,65.7,58.4,97,87,58,30.12,30.00,2,0,8,0.00
2013-7-8,80.4,71.1,66.9,74.0,69.1,65.8,97,94,81,30.13,30.03,0,0,3,1.37
2013-7-9,84.7,73.3,66.2,75.8,69.4,65.2,97,88,68,30.17,30.06,2,0,8,0.00
2013-7-10,76.6,71.5,67.0,73.9,69.2,66.1,97,92,84,30.09,29.81,2,0,9,0.17
2013-7-11,80.1,69.7,57.3,69.7,64.6,56.2,97,85,56,30.12,29.81,4,1,12,0.05
2013-7-12,82.6,67.3,54.2,67.3,59.1,53.4,97,78,41,30.31,30.12,2,0,7,0.00
2013-7-13,80.1,68.2,55.8,69.0,62.3,54.8,97,83,61,30.40,30.31,2,0,10,0.00
2013-7-14,87.3,73.1,62.7,75.7,68.4,61.5,96,86,60,30.41,30.28,1,0,6,0.00
2013-7-15,90.2,76.1,64.6,76.0,67.6,63.5,97,78,46,30.33,30.20,3,1,12,0.00
2013-7-16,89.0,75.1,61.8,72.7,67.5,60.9,97,80,53,30.31,30.22,3,1,11,0.00
2013-7-17,92.4,76.9,61.6,77.7,68.8,60.6,97,79,49,30.29,30.03,3,1,16,0.01
2013-7-18,88.3,75.8,65.8,77.5,70.9,64.9,97,86,57,30.12,30.01,3,0,14,0.00
2013-7-19,91.9,77.6,67.1,77.2,71.2,65.9,97,83,55,30.01,29.71,6,2,23,0.13
2013-7-20,83.1,71.9,62.6,71.9,65.9,60.2,97,83,53,29.92,29.71,5,1,28,0.02
2013-7-21,77.5,66.7,54.8,62.2,58.7,53.4,96,78,50,30.14,29.92,3,1,10,0.00
2013-7-22,81.8,66.1,51.1,70.5,60.3,50.0,97,83,59,30.16,29.96,1,0,7,0.00
2013-7-23,79.3,68.8,64.1,72.3,66.7,63.1,97,93,79,29.95,29.62,1,0,4,1.21
2013-7-24,69.7,61.7,52.3,64.3,57.8,50.0,98,88,67,30.15,29.66,4,1,13,0.18
2013-7-25,73.3,58.0,43.1,60.8,51.1,42.3,97,80,52,30.26,30.15,2,0,9,0.00
2013-7-26,72.3,60.7,50.1,64.4,56.6,49.3,97,87,69,30.23,30.11,3,0,8,0.00
2013-7-27,83.1,64.9,49.9,68.1,58.3,49.1,97,82,49,30.17,30.04,2,0,7,0.00
2013-7-28,77.7,65.8,54.8,69.5,61.8,53.7,97,88,69,30.11,30.00,3,1,12,0.32
2013-7-29,78.7,69.2,61.5,70.3,63.4,57.2,97,84,48,30.17,30.04,4,1,17,0.55
2013-7-30,76.3,65.4,55.6,61.7,58.2,54.6,97,80,52,30.23,30.14,3,1,12,0.01
2013-7-31,81.2,64.9,50.3,66.5,58.0,49.5,97,81,44,30.26,30.10,2,0,6,0.00
2013-8-1,79.4,64.5,54.5,66.1,60.6,53.4,97,88,61,30.12,29.92,3,1,11,0.15
2013-8-2,77.7,67.4,57.4,68.4,60.9,56.3,97,82,51,29.94,29.85,4,1,14,0.14
2013-8-3,72.9,63.2,55.6,64.3,58.1,54.5,97,85,61,29.94,29.86,4,1,16,0.06
2013-8-4,70.7,59.5,52.1,62.1,56.3,51.0,98,90,66,30.04,29.92,2,0,13,0.15
2013-8-5,69.9,58.3,46.7,53.9,48.5,38.6,97,74,35,30.17,30.04,4,1,15,0.04
2013-8-6,76.8,59.1,42.8,62.5,52.0,42.0,97,80,45,30.25,30.17,2,0,8,0.00
2013-8-7,78.5,64.1,49.1,64.7,57.2,48.0,97,80,57,30.26,30.11,3,1,13,0.00
2013-8-8,84.3,71.0,62.4,71.8,65.4,59.6,95,83,60,30.11,30.02,3,1,9,0.00
2013-8-9,76.1,68.3,63.0,72.9,67.1,61.8,97,96,89,30.05,29.85,1,0,17,1.34
2013-8-10,73.6,64.0,49.6,63.8,56.4,48.5,98,79,49,30.13,29.88,4,1,19,0.01
2013-8-11,76.3,61.3,45.7,60.9,53.8,44.9,98,79,48,30.20,30.06,3,0,11,0.00
2013-8-12,77.9,63.8,50.3,65.2,57.6,49.5,97,82,48,30.13,30.00,3,0,15,0.00
2013-8-13,73.4,62.2,55.2,68.8,60.4,54.4,97,94,74,30.02,29.77,1,0,3,0.11
2013-8-14,68.7,58.7,49.3,59.1,55.2,48.5,97,89,64,30.06,29.78,4,1,17,0.20
2013-8-15,73.2,57.8,44.7,59.3,51.5,43.9,98,82,49,30.21,30.07,4,1,13,0.01
2013-8-16,76.4,60.0,44.4,63.3,54.0,43.6,97,83,44,30.33,30.21,2,0,9,0.05
2013-8-17,76.0,62.3,51.6,63.4,56.7,50.5,97,84,53,30.42,30.33,3,1,9,0.00
2013-8-18,78.7,61.7,50.0,66.2,56.5,48.9,97,85,51,30.40,30.19,2,0,7,0.00
2013-8-19,81.6,64.5,51.3,67.5,58.6,50.4,97,83,54,30.20,30.05,3,0,12,0.01
2013-8-20,83.1,67.1,53.6,68.4,60.5,52.8,97,82,47,30.20,30.11,3,0,11,0.00
2013-8-21,85.0,69.5,56.1,71.2,63.0,55.3,97,82,51,30.26,30.08,3,0,13,0.00
2013-8-22,85.8,69.3,57.8,71.2,63.7,57.0,97,85,51,30.11,29.89,4,0,16,0.53
2013-8-23,71.9,62.2,47.5,63.6,56.3,46.4,98,83,55,30.31,29.96,4,1,14,0.01
2013-8-24,77.2,57.9,45.2,60.2,50.6,44.1,97,80,45,30.47,30.32,2,0,8,0.00
2013-8-25,78.6,59.6,42.9,62.9,53.0,42.1,97,82,46,30.51,30.24,2,0,8,0.01
2013-8-26,69.3,63.7,59.2,67.8,62.5,58.1,97,96,93,30.26,29.99,0,0,2,0.09
2013-8-27,82.5,71.1,63.6,72.1,67.0,62.7,98,88,65,30.01,29.94,2,0,7,0.00
2013-8-28,85.0,71.5,62.9,72.5,67.1,61.8,97,87,62,30.07,29.93,3,0,8,0.00
2013-8-29,80.6,67.3,60.2,68.2,63.7,59.3,97,89,60,30.16,30.06,2,0,10,0.02
2013-8-30,85.4,70.6,61.2,72.6,65.8,60.3,97,86,57,30.10,29.86,2,0,8,0.00
2013-8-31,71.9,68.3,65.2,69.9,67.0,64.3,97,96,91,29.90,29.85,0,0,3,0.15
2013-9-1,83.2,71.6,63.6,71.8,67.6,62.7,98,88,61,29.97,29.88,1,0,5,0.00
2013-9-2,80.3,69.9,62.0,72.8,67.8,61.1,97,93,74,29.94,29.76,3,0,14,0.23
2013-9-3,75.1,64.8,58.2,66.6,61.2,57.2,98,89,63,29.90,29.78,2,0,10,0.04
2013-9-4,72.6,62.2,52.4,61.9,58.1,51.6,98,88,57,30.02,29.91,4,1,13,0.27
2013-9-5,63.7,55.0,39.2,57.8,48.3,38.2,97,80,51,30.29,29.99,3,1,14,0.05
2013-9-6,67.0,50.4,35.1,51.3,42.8,34.3,98,79,42,30.38,30.18,3,0,11,0.00
2013-9-7,72.0,56.6,45.0,59.3,51.2,44.2,97,84,48,30.18,29.94,3,0,10,0.01
2013-9-8,60.6,53.3,38.8,55.0,48.1,37.8,97,84,56,30.22,29.88,4,1,15,0.12
2013-9-9,69.3,50.2,34.3,53.8,42.7,33.5,98,80,36,30.34,30.17,3,0,9,0.00
2013-9-10,72.1,58.3,46.8,68.9,57.0,46.0,97,96,88,30.19,30.07,1,0,5,0.43
2013-9-11,90.5,71.9,59.2,76.8,67.3,58.6,98,87,58,30.13,29.98,5,1,16,0.05
2013-9-12,81.4,68.8,63.6,73.3,66.7,62.7,97,93,69,30.02,29.72,4,0,11,0.91
2013-9-13,65.1,58.4,52.7,64.2,56.7,50.7,98,94,88,29.95,29.70,3,1,13,0.52
2013-9-14,61.6,52.3,43.1,52.5,48.9,42.3,97,89,69,30.20,29.93,3,1,12,0.00
2013-9-15,69.3,53.1,40.6,57.1,48.8,40.1,98,87,53,30.26,30.12,2,0,9,0.00
2013-9-16,53.3,48.1,33.2,52.7,45.0,32.4,98,90,63,30.45,30.12,5,1,21,0.09
2013-9-17,63.3,44.5,31.3,48.3,39.1,30.5,98,84,50,30.61,30.45,3,0,9,0.00
2013-9-18,72.0,49.7,34.7,54.6,44.2,33.9,98,84,44,30.46,30.23,1,0,5,0.00
2013-9-19,76.9,54.4,40.7,58.5,48.9,39.9,98,85,44,30.29,30.13,2,0,6,0.01
2013-9-20,79.5,58.3,45.1,63.5,53.1,44.3,98,85,48,30.23,30.02,2,0,9,0.00
2013-9-21,74.9,60.3,45.1,62.0,54.6,44.3,98,83,52,30.05,29.70,4,1,16,0.02
2013-9-22,62.8,54.9,45.7,60.7,52.2,43.0,97,91,78,29.99,29.66,3,1,12,0.72
2013-9-23,50.3,45.8,42.4,43.3,41.2,38.8,94,84,74,30.17,29.99,4,2,15,0.00
2013-9-24,60.3,50.0,45.0,49.1,43.5,39.8,96,79,55,30.15,30.02,4,2,15,0.00
2013-9-25,65.2,50.3,37.3,52.3,45.8,36.5,97,86,62,30.15,30.04,4,1,16,0.00
2013-9-26,60.9,49.6,40.3,51.0,46.4,39.5,97,89,65,30.30,30.15,2,0,11,0.00
2013-9-27,68.0,54.6,43.8,55.1,50.3,42.9,97,87,57,30.42,30.29,2,0,6,0.00
2013-9-28,73.2,53.3,43.1,57.8,48.4,42.3,98,86,48,30.50,30.36,1,0,4,0.00
2013-9-29,73.7,53.4,43.1,60.2,48.4,42.3,98,86,49,30.38,30.16,1,0,6,0.01
2013-9-30,73.2,53.3,42.8,57.8,47.9,42.0,97,85,43,30.24,30.08,1,0,4,0.00
2013-10-1,74.9,55.3,43.5,59.7,50.7,42.7,97,86,54,30.14,29.97,3,0,9,0.01
2013-10-2,76.1,57.2,48.2,62.8,53.4,47.4,98,89,57,30.07,29.92,4,1,18,0.00
2013-10-3,72.2,54.4,41.0,55.2,47.8,40.2,97,82,45,30.22,30.08,2,0,8,0.01
2013-10-4,65.6,51.7,41.3,57.3,48.8,40.5,98,91,62,30.26,30.16,1,0,3,0.00
2013-10-5,64.1,55.0,47.5,56.3,51.1,45.9,96,87,66,30.27,30.18,1,0,5,0.02
2013-10-6,54.9,50.0,47.5,49.6,47.2,45.3,96,90,70,30.30,30.19,2,0,9,0.20
2013-10-7,67.8,58.3,48.9,63.7,56.0,48.0,97,92,80,30.19,29.70,6,2,20,0.63
2013-10-8,58.6,48.4,33.7,48.5,41.5,32.7,97,79,47,30.52,29.99,4,1,14,0.00
2013-10-9,64.7,43.9,32.0,47.4,37.6,31.0,97,82,39,30.63,30.47,2,0,6,0.00
2013-10-10,65.6,45.0,31.0,52.1,40.1,30.3,98,85,44,30.50,30.33,1,0,3,0.01
2013-10-11,73.5,49.9,37.2,50.9,42.2,34.5,97,80,24,30.34,30.23,1,0,4,0.00
2013-10-12,71.2,51.1,34.0,55.5,45.2,33.2,97,83,54,30.48,30.33,3,1,9,0.00
2013-10-13,66.4,54.7,42.0,49.8,47.3,40.9,96,78,53,30.52,30.41,4,1,13,0.00
2013-10-14,55.4,48.4,39.1,53.7,47.2,38.3,97,96,88,30.45,30.36,0,0,3,0.11
2013-10-15,65.3,55.6,50.4,58.0,53.2,49.6,97,92,72,30.40,30.24,3,0,9,0.00
2013-10-16,63.7,56.2,49.9,53.7,51.8,48.8,97,86,66,30.23,29.93,3,1,11,0.01
2013-10-17,65.9,54.2,46.5,56.0,50.9,45.2,98,90,60,29.94,29.80,2,0,8,0.19
2013-10-18,61.5,52.1,38.9,52.9,47.3,37.3,98,85,60,29.99,29.72,5,1,20,0.67
2013-10-19,62.2,46.6,33.1,48.9,41.4,32.3,98,84,52,30.05,29.79,3,0,13,0.06
2013-10-20,55.6,47.7,37.6,47.2,39.8,34.4,97,76,47,30.10,29.74,6,2,22,0.03
2013-10-21,63.0,44.3,29.1,46.2,38.5,28.1,97,82,49,30.21,30.00,3,0,13,0.00
2013-10-22,53.7,44.6,31.4,50.8,41.1,29.6,96,88,67,30.00,29.80,3,1,17,0.05
2013-10-23,51.2,38.9,28.8,38.0,32.3,27.8,96,79,47,29.90,29.73,4,1,13,0.00
2013-10-24,44.7,36.0,26.3,37.2,32.0,24.8,96,86,60,29.99,29.79,7,1,26,0.18
2013-10-25,43.2,36.6,32.8,34.2,31.8,29.0,97,83,60,30.24,29.99,4,1,15,0.02
2013-10-26,45.4,35.3,26.5,37.5,31.5,25.0,96,87,56,30.24,29.92,5,1,19,0.04
2013-10-27,46.0,38.9,31.5,39.2,33.9,29.4,96,83,58,30.14,29.86,5,1,20,0.02
2013-10-28,45.1,37.0,29.6,38.9,33.2,28.1,95,87,60,30.35,30.13,4,1,18,0.04
2013-10-29,42.5,27.3,16.7,28.6,21.7,15.3,95,82,48,30.62,30.50,2,0,7,0.00
2013-10-30,42.1,31.3,23.1,34.9,28.3,21.4,95,89,72,30.49,30.32,2,0,7,0.01
2013-10-31,51.7,36.9,27.0,51.2,36.0,26.0,98,96,93,30.37,29.76,2,0,11,0.53
2013-11-1,65.8,57.6,46.2,60.9,51.2,42.5,98,81,48,29.74,29.37,9,3,31,0.53
2013-11-2,55.8,44.7,35.9,47.4,41.2,34.3,96,88,65,29.99,29.70,3,1,11,0.04
2013-11-3,37.2,30.0,19.0,34.4,21.7,16.9,94,72,47,30.62,29.99,4,1,12,0.00
2013-11-4,37.7,24.1,14.1,21.7,17.5,12.7,94,79,43,30.83,30.63,2,0,9,0.00
2013-11-5,49.2,31.8,18.5,32.4,25.2,17.1,95,79,45,30.82,30.57,4,1,11,0.00
2013-11-6,59.1,44.3,28.2,46.5,37.5,26.9,95,79,53,30.56,29.98,4,1,18,0.00
2013-11-7,58.6,46.7,33.9,52.0,42.3,26.8,95,85,70,29.99,29.81,4,2,21,0.40
2013-11-8,36.8,32.6,26.6,30.8,27.1,23.9,95,81,66,30.21,29.94,5,2,24,0.01
2013-11-9,39.7,34.3,29.5,30.2,25.7,22.6,92,71,52,30.31,30.08,3,1,15,0.00
2013-11-10,42.4,35.6,31.6,40.2,34.3,30.3,96,95,89,30.07,29.81,2,0,11,0.63
2013-11-11,40.6,35.8,30.9,35.2,31.2,28.1,95,84,69,30.22,29.94,4,1,19,0.09
2013-11-12,31.3,25.8,22.7,29.5,19.9,16.3,94,78,69,30.38,30.00,4,2,20,0.00
2013-11-13,28.7,23.4,17.2,20.3,15.8,12.8,91,74,53,30.46,30.17,3,1,15,0.00
2013-11-14,42.7,31.1,20.5,30.8,25.3,18.6,95,80,60,30.19,30.13,4,1,11,0.01
2013-11-15,51.6,30.8,21.8,33.9,25.7,20.6,95,84,34,30.32,30.19,2,0,7,0.00
2013-11-16,56.0,35.2,25.9,33.5,28.2,24.4,94,80,33,30.42,30.31,2,0,10,0.00
2013-11-17,47.0,37.2,24.2,46.2,35.6,23.0,97,94,89,30.40,29.87,4,1,17,0.13
2013-11-18,56.2,49.4,37.0,54.5,41.9,31.5,97,76,51,29.85,29.50,7,3,24,0.42
2013-11-19,38.7,30.4,26.5,32.5,21.4,17.6,89,69,59,30.48,29.73,6,4,25,0.02
2013-11-20,34.6,25.4,16.6,21.1,18.6,14.9,93,76,52,30.80,30.49,3,1,11,0.00
2013-11-21,41.4,24.9,12.1,26.5,19.4,10.2,94,81,42,30.80,30.48,1,0,5,0.01
2013-11-22,33.4,31.6,27.1,32.4,29.6,24.5,96,93,81,30.48,29.93,0,0,3,0.05
2013-11-23,37.2,29.5,18.4,36.2,23.5,13.8,97,79,60,30.09,29.87,5,2,21,0.05
2013-11-24,17.9,15.0,10.9,14.1,7.7,0.6,90,73,59,30.36,29.96,6,4,28,0.00
2013-11-25,29.6,16.1,0.8,18.7,5.9,-2.4,89,66,36,30.53,30.28,3,1,16,0.00
2013-11-26,34.7,30.6,27.3,28.6,24.4,16.5,95,78,56,30.38,30.14,3,1,11,0.03
2013-11-27,34.2,31.8,28.2,33.4,30.7,26.2,97,96,92,30.14,29.49,2,0,8,0.13
2013-11-28,27.9,17.9,7.5,26.1,13.2,5.7,93,82,62,30.56,29.62,5,1,18,0.00
2013-11-29,23.1,10.9,2.2,13.6,6.7,0.0,92,84,59,30.92,30.56,2,0,10,0.00
2013-11-30,24.7,12.5,-4.5,16.5,5.6,-7.1,90,75,54,30.97,30.47,4,1,12,0.00
2013-12-1,35.3,29.4,24.6,29.7,24.8,13.8,96,83,62,30.47,30.19,4,0,14,0.01
2013-12-2,35.5,31.0,28.5,33.7,29.8,27.5,97,95,92,30.19,30.03,0,0,2,0.00
2013-12-3,34.0,31.4,29.8,32.5,30.2,26.7,97,95,82,30.12,30.04,2,0,7,0.00
2013-12-4,37.7,28.7,22.4,30.0,25.6,21.2,96,88,67,30.31,30.12,2,0,8,0.00
2013-12-5,38.5,31.0,21.8,36.4,29.7,20.6,96,95,91,30.29,29.97,2,1,8,0.05
2013-12-6,38.4,34.1,30.9,37.6,32.3,26.6,97,93,81,30.26,29.99,2,0,8,0.32
2013-12-7,31.9,27.0,20.8,26.7,18.3,14.1,85,70,57,30.58,30.23,4,1,16,0.00
2013-12-8,26.0,21.6,16.0,17.2,13.4,9.8,85,71,56,30.71,30.58,3,1,11,0.00
2013-12-9,31.4,25.4,21.3,30.4,22.6,14.9,96,89,70,30.60,29.98,3,1,12,0.00
2013-12-10,33.3,27.2,20.4,30.5,19.2,8.6,95,72,57,30.04,29.90,4,2,18,0.00
2013-12-11,23.9,19.1,11.7,19.7,13.3,7.7,91,78,61,30.29,30.05,4,1,15,0.00
2013-12-12,15.3,10.9,4.3,10.2,4.0,-0.5,89,74,53,30.43,30.07,3,1,18,0.00
2013-12-13,16.1,9.9,-5.3,13.1,5.0,-8.4,91,80,70,30.57,30.02,4,1,14,0.00
2013-12-14,6.8,-0.6,-10.8,4.3,-5.5,-14.0,89,80,57,30.79,30.38,2,0,5,0.00
2013-12-15,21.8,14.6,6.6,18.6,12.2,4.1,93,90,85,30.36,29.69,4,0,16,0.00
2013-12-16,14.8,7.1,-9.1,13.2,2.3,-12.5,93,81,64,30.39,29.83,3,1,15,0.00
2013-12-17,8.3,-4.3,-21.2,6.0,-7.7,-24.9,90,85,76,30.45,30.19,2,0,4,0.00
2013-12-18,25.4,14.6,0.2,21.4,11.8,-2.5,94,89,78,30.18,30.06,1,0,3,0.00
2013-12-19,30.2,26.6,21.5,28.2,24.7,20.2,95,93,83,30.20,30.03,1,0,6,0.00
2013-12-20,32.8,30.8,28.8,31.8,29.8,27.8,97,96,95,30.21,30.00,1,0,3,0.13
2013-12-21,39.1,33.5,30.6,38.3,32.6,29.6,97,97,96,30.05,29.89,2,0,17,0.88
2013-12-22,33.2,32.0,30.9,32.4,31.2,30.2,97,97,97,30.08,29.84,2,0,7,0.78
2013-12-23,35.0,32.6,27.6,34.5,31.5,23.7,98,96,80,30.27,30.07,2,0,12,0.19
2013-12-24,27.9,17.2,5.1,24.3,12.8,1.1,94,83,69,30.44,30.23,3,1,11,0.00
2013-12-25,13.8,6.3,-0.5,8.7,1.5,-4.3,90,80,64,30.70,30.45,2,1,11,0.00
2013-12-26,25.1,19.2,11.5,22.5,15.9,7.6,95,87,69,30.55,30.22,3,0,9,0.00
2013-12-27,28.4,22.9,14.7,22.8,19.8,13.3,95,88,73,30.34,30.26,4,1,12,0.00
2013-12-28,36.8,25.6,10.2,33.0,23.6,8.3,96,92,82,30.26,30.09,3,1,14,0.01
2013-12-29,33.8,28.4,20.8,32.1,27.4,19.6,97,96,93,30.12,29.69,1,0,3,0.00
2013-12-30,33.6,18.1,-0.8,32.8,13.7,-3.5,97,83,65,30.35,29.69,5,2,21,0.01
2013-12-31,16.2,7.1,0.4,10.4,2.5,-3.2,91,81,68,30.33,30.15,4,0,14,0.00
2014-1-1,15.5,9.4,-1.0,11.3,3.5,-9.2,90,77,62,30.57,30.25,3,1,13,0.00
2014-1-2,1.6,-1.9,-5.4,-2.6,-6.8,-10.3,85,79,67,30.57,30.16,2,1,7,0.00